createdAt,value
2024-04-30T00:01:53.830Z,9.20
2024-04-30T00:04:21.333Z,9.30
2024-04-30T00:06:48.917Z,9.30
2024-04-30T00:09:16.403Z,9.20
2024-04-30T00:11:44.731Z,9.20
2024-04-30T00:14:12.127Z,9.10
2024-04-30T00:16:45.916Z,9.10
2024-04-30T00:19:13.394Z,9.20
2024-04-30T00:21:45.366Z,9.20
2024-04-30T00:24:12.864Z,9.20
2024-04-30T00:26:40.419Z,9.20
2024-04-30T00:29:07.925Z,9.10
2024-04-30T00:31:35.296Z,9.10
2024-04-30T00:34:02.912Z,9.00
2024-04-30T00:36:30.333Z,9.00
2024-04-30T00:38:57.742Z,9.00
2024-04-30T00:41:25.064Z,8.80
2024-04-30T00:43:52.397Z,8.70
2024-04-30T00:46:19.803Z,8.80
2024-04-30T00:48:47.466Z,8.80
2024-04-30T00:51:15.398Z,8.80
2024-04-30T00:53:43.018Z,8.80
2024-04-30T00:56:11.025Z,8.80
2024-04-30T00:58:38.716Z,8.80
2024-04-30T01:01:09.005Z,8.70
2024-04-30T01:03:36.574Z,8.70
2024-04-30T01:06:04.245Z,8.70
2024-04-30T01:08:31.744Z,8.70
2024-04-30T01:11:00.357Z,8.50
2024-04-30T01:13:36.582Z,8.40
2024-04-30T01:16:04.610Z,8.30
2024-04-30T01:18:32.042Z,8.30
2024-04-30T01:20:59.567Z,8.40
2024-04-30T01:23:26.913Z,8.50
2024-04-30T01:25:54.519Z,8.60
2024-04-30T01:28:21.955Z,8.60
2024-04-30T01:30:50.109Z,8.60
2024-04-30T01:33:17.724Z,8.50
2024-04-30T01:35:45.554Z,8.40
2024-04-30T01:38:13.134Z,8.40
2024-04-30T01:40:40.646Z,8.30
2024-04-30T01:43:08.404Z,8.20
2024-04-30T01:45:36.180Z,8.20
2024-04-30T01:48:03.683Z,8.20
2024-04-30T01:50:31.080Z,8.20
2024-04-30T01:52:58.397Z,8.30
2024-04-30T01:55:25.963Z,8.30
2024-04-30T01:57:53.280Z,8.20
2024-04-30T02:00:20.774Z,8.20
2024-04-30T02:02:48.210Z,8.30
2024-04-30T02:05:21.138Z,8.20
2024-04-30T02:07:52.687Z,8.20
2024-04-30T02:10:20.122Z,8.10
2024-04-30T02:12:47.674Z,8.00
2024-04-30T02:15:15.160Z,8.00
2024-04-30T02:17:42.779Z,7.90
2024-04-30T02:20:10.615Z,7.90
2024-04-30T02:22:38.184Z,7.90
2024-04-30T02:25:05.908Z,7.90
2024-04-30T02:27:33.703Z,7.90
2024-04-30T02:30:01.151Z,7.80
2024-04-30T02:32:47.190Z,7.90
2024-04-30T02:35:14.726Z,7.80
2024-04-30T02:37:42.077Z,7.70
2024-04-30T02:40:09.904Z,7.60
2024-04-30T02:42:37.363Z,7.60
2024-04-30T02:45:05.101Z,7.60
2024-04-30T02:47:32.554Z,7.50
2024-04-30T02:50:00.120Z,7.40
2024-04-30T02:52:27.601Z,7.40
2024-04-30T02:54:54.979Z,7.40
2024-04-30T02:57:22.356Z,7.30
2024-04-30T02:59:49.708Z,7.40
2024-04-30T03:02:17.035Z,7.30
2024-04-30T03:04:45.829Z,7.30
2024-04-30T03:07:13.352Z,7.30
2024-04-30T03:09:40.753Z,7.20
2024-04-30T03:12:08.217Z,7.10
2024-04-30T03:14:35.670Z,7.10
2024-04-30T03:17:03.087Z,7.20
2024-04-30T03:19:30.682Z,7.10
2024-04-30T03:21:58.171Z,7.20
2024-04-30T03:24:25.682Z,7.10
2024-04-30T03:26:53.016Z,7.20
2024-04-30T03:29:20.421Z,7.10
2024-04-30T03:31:47.790Z,7.10
2024-04-30T03:34:15.743Z,7.20
2024-04-30T03:36:43.235Z,7.30
2024-04-30T03:39:12.715Z,7.30
2024-04-30T03:41:40.308Z,7.20
2024-04-30T03:44:08.066Z,7.30
2024-04-30T03:46:35.483Z,7.20
2024-04-30T03:49:03.055Z,7.10
2024-04-30T03:51:30.503Z,7.10
2024-04-30T03:53:57.919Z,7.00
2024-04-30T03:56:25.442Z,7.10
2024-04-30T03:58:52.955Z,7.20
2024-04-30T04:01:20.310Z,7.20
2024-04-30T04:03:47.757Z,7.30
2024-04-30T04:06:17.621Z,7.30
2024-04-30T04:08:45.475Z,7.40
2024-04-30T04:11:31.298Z,7.40
2024-04-30T04:14:24.915Z,7.60
2024-04-30T04:16:52.300Z,7.70
2024-04-30T04:19:19.698Z,7.80
2024-04-30T04:21:47.060Z,7.80
2024-04-30T04:24:14.508Z,7.80
2024-04-30T04:26:42.026Z,7.90
2024-04-30T04:29:09.361Z,8.00
2024-04-30T04:31:36.875Z,8.10
2024-04-30T04:34:04.373Z,8.10
2024-04-30T04:36:31.798Z,8.30
2024-04-30T04:38:59.675Z,8.40
2024-04-30T04:41:27.171Z,8.40
2024-04-30T04:43:54.512Z,8.50
2024-04-30T04:46:22.082Z,8.60
2024-04-30T04:48:49.558Z,8.80
2024-04-30T04:51:17.131Z,8.70
2024-04-30T04:53:44.466Z,8.60
2024-04-30T04:56:11.880Z,8.60
2024-04-30T04:58:39.221Z,8.80
2024-04-30T05:01:08.854Z,8.90
2024-04-30T05:03:38.655Z,9.10
2024-04-30T05:06:06.366Z,9.10
2024-04-30T05:08:33.864Z,9.30
2024-04-30T05:11:01.206Z,9.40
2024-04-30T05:13:31.879Z,9.50
2024-04-30T05:15:59.476Z,9.60
2024-04-30T05:18:26.895Z,9.70
2024-04-30T05:20:54.297Z,9.80
2024-04-30T05:23:21.799Z,9.90
2024-04-30T05:25:49.209Z,10.00
2024-04-30T05:28:16.698Z,10.10
2024-04-30T05:30:44.183Z,10.10
2024-04-30T05:33:13.602Z,10.20
2024-04-30T05:35:41.435Z,10.30
2024-04-30T05:38:08.799Z,10.30
2024-04-30T05:40:36.333Z,10.40
2024-04-30T05:43:12.261Z,10.50
2024-04-30T05:45:39.951Z,10.60
2024-04-30T05:48:07.718Z,10.60
2024-04-30T05:50:35.422Z,10.70
2024-04-30T05:53:08.110Z,10.80
2024-04-30T05:55:35.894Z,10.90
2024-04-30T05:58:04.459Z,10.90
2024-04-30T06:00:32.513Z,11.00
2024-04-30T06:03:03.798Z,11.20
2024-04-30T06:05:32.125Z,11.20
2024-04-30T06:07:59.642Z,11.40
2024-04-30T06:10:27.287Z,11.50
2024-04-30T06:12:54.792Z,11.70
2024-04-30T06:15:22.347Z,11.70
2024-04-30T06:17:50.463Z,11.90
2024-04-30T06:20:18.632Z,12.00
2024-04-30T06:22:46.439Z,12.10
2024-04-30T06:25:14.213Z,12.20
2024-04-30T06:27:51.035Z,12.10
2024-04-30T06:30:18.625Z,12.10
2024-04-30T06:32:46.294Z,12.20
2024-04-30T06:35:14.121Z,12.80
2024-04-30T06:37:41.846Z,13.30
2024-04-30T06:40:09.995Z,13.20
2024-04-30T06:42:37.474Z,13.80
2024-04-30T06:45:05.493Z,14.60
2024-04-30T06:47:33.180Z,15.00
2024-04-30T06:50:03.194Z,15.60
2024-04-30T06:52:31.039Z,16.30
2024-04-30T06:54:58.654Z,16.80
2024-04-30T06:57:29.476Z,16.90
2024-04-30T06:59:57.344Z,16.80
2024-04-30T07:02:27.065Z,16.70
2024-04-30T07:04:54.638Z,16.40
2024-04-30T07:07:22.089Z,16.20
2024-04-30T07:09:49.579Z,15.90
2024-04-30T07:12:17.002Z,16.40
2024-04-30T07:14:44.463Z,17.10
2024-04-30T07:17:11.906Z,16.90
2024-04-30T07:19:41.366Z,16.70
2024-04-30T07:22:16.075Z,17.20
2024-04-30T07:24:44.037Z,16.30
2024-04-30T07:27:14.510Z,17.30
2024-04-30T07:29:42.325Z,16.60
2024-04-30T07:32:09.857Z,17.30
2024-04-30T07:34:37.555Z,17.50
2024-04-30T07:37:07.827Z,17.70
2024-04-30T07:39:35.353Z,18.30
2024-04-30T07:42:05.238Z,16.50
2024-04-30T07:44:34.038Z,15.80
2024-04-30T07:47:01.510Z,16.20
2024-04-30T07:49:29.087Z,15.80
2024-04-30T07:51:56.384Z,16.20
2024-04-30T07:54:23.691Z,16.70
2024-04-30T07:56:51.131Z,16.00
2024-04-30T07:59:18.805Z,16.80
2024-04-30T08:01:47.280Z,17.10
2024-04-30T08:04:14.972Z,17.40
2024-04-30T08:06:42.555Z,18.40
2024-04-30T08:09:12.095Z,17.10
2024-04-30T08:11:39.592Z,17.90
2024-04-30T08:14:07.138Z,16.80
2024-04-30T08:16:34.687Z,18.10
2024-04-30T08:19:02.456Z,18.80
2024-04-30T08:21:31.155Z,18.80
2024-04-30T08:24:01.520Z,18.90
2024-04-30T08:26:29.028Z,18.80
2024-04-30T08:28:56.559Z,18.70
2024-04-30T08:31:24.590Z,18.60
2024-04-30T08:33:52.278Z,19.60
2024-04-30T08:36:26.955Z,19.80
2024-04-30T08:38:57.033Z,19.10
2024-04-30T08:41:26.160Z,19.20
2024-04-30T08:43:54.173Z,19.20
2024-04-30T08:46:21.818Z,18.90
2024-04-30T08:48:51.193Z,18.30
2024-04-30T08:51:18.695Z,18.90
2024-04-30T08:53:47.855Z,20.10
2024-04-30T08:56:16.009Z,20.50
2024-04-30T08:58:43.567Z,21.00
2024-04-30T09:01:11.729Z,19.20
2024-04-30T09:03:43.879Z,19.00
2024-04-30T09:06:12.153Z,20.80
2024-04-30T09:08:39.614Z,20.60
2024-04-30T09:11:07.373Z,20.30
2024-04-30T09:13:36.196Z,19.30
2024-04-30T09:16:05.927Z,19.90
2024-04-30T09:18:33.768Z,18.40
2024-04-30T09:21:11.881Z,18.70
2024-04-30T09:23:44.582Z,19.30
2024-04-30T09:26:12.598Z,19.90
2024-04-30T09:28:40.761Z,20.00
2024-04-30T09:31:11.393Z,19.50
2024-04-30T09:33:39.230Z,20.60
2024-04-30T09:36:09.690Z,20.70
2024-04-30T09:38:39.414Z,21.00
2024-04-30T09:41:10.498Z,20.70
2024-04-30T09:43:41.345Z,18.90
2024-04-30T09:46:09.150Z,20.20
2024-04-30T09:48:37.912Z,20.00
2024-04-30T09:51:08.286Z,19.30
2024-04-30T09:53:37.588Z,18.70
2024-04-30T09:56:11.833Z,20.00
2024-04-30T09:58:47.203Z,20.20
2024-04-30T10:01:18.820Z,20.10
2024-04-30T10:03:47.260Z,19.70
2024-04-30T10:06:18.305Z,18.60
2024-04-30T10:08:47.146Z,19.20
2024-04-30T10:11:14.695Z,20.50
2024-04-30T10:14:08.375Z,19.20
2024-04-30T10:16:36.944Z,20.40
2024-04-30T10:19:07.162Z,20.80
2024-04-30T10:21:38.833Z,21.30
2024-04-30T10:24:22.093Z,21.60
2024-04-30T10:26:52.241Z,20.50
2024-04-30T10:29:19.661Z,21.40
2024-04-30T10:31:49.167Z,21.70
2024-04-30T10:34:17.534Z,21.40
2024-04-30T10:36:49.297Z,21.30
2024-04-30T10:39:27.347Z,21.50
2024-04-30T10:41:55.112Z,20.80
2024-04-30T10:44:23.423Z,21.20
2024-04-30T10:46:51.233Z,20.90
2024-04-30T10:49:21.809Z,20.80
2024-04-30T10:51:50.095Z,20.10
2024-04-30T10:54:18.100Z,20.40
2024-04-30T10:56:46.967Z,20.30
2024-04-30T10:59:14.482Z,20.20
2024-04-30T11:01:42.414Z,20.30
2024-04-30T11:04:13.694Z,19.70
2024-04-30T11:06:49.702Z,20.30
2024-04-30T11:09:18.164Z,21.00
2024-04-30T11:11:50.086Z,20.80
2024-04-30T11:14:24.873Z,21.00
2024-04-30T11:16:55.817Z,20.30
2024-04-30T11:19:24.237Z,20.90
2024-04-30T11:21:54.146Z,20.80
2024-04-30T11:24:21.957Z,20.00
2024-04-30T11:26:50.864Z,20.90
2024-04-30T11:31:53.535Z,20.30
2024-04-30T11:34:21.324Z,19.70
2024-04-30T11:36:48.982Z,19.10
2024-04-30T11:39:16.768Z,19.60
2024-04-30T11:41:49.641Z,19.50
2024-04-30T11:44:24.735Z,21.00
2024-04-30T11:46:52.090Z,21.00
2024-04-30T11:49:19.615Z,21.10
2024-04-30T11:51:46.974Z,21.30
2024-04-30T11:54:14.292Z,21.20
2024-04-30T11:56:41.552Z,20.50
2024-04-30T11:59:09.256Z,20.50
2024-04-30T12:01:36.694Z,20.90
2024-04-30T12:04:04.938Z,21.70
2024-04-30T12:06:35.849Z,21.70
2024-04-30T12:09:05.592Z,21.40
2024-04-30T12:11:32.960Z,20.60
2024-04-30T12:14:00.788Z,21.30
2024-04-30T12:16:28.279Z,21.80
2024-04-30T12:19:00.483Z,21.20
2024-04-30T12:21:27.999Z,21.80
2024-04-30T12:23:55.830Z,21.30
2024-04-30T12:26:24.346Z,20.50
2024-04-30T12:28:51.755Z,21.70
2024-04-30T12:31:19.338Z,20.40
2024-04-30T12:33:47.114Z,21.80
2024-04-30T12:36:15.669Z,22.00
2024-04-30T12:38:44.093Z,22.40
2024-04-30T12:41:12.075Z,22.70
2024-04-30T12:43:40.261Z,22.00
2024-04-30T12:46:08.554Z,20.40
2024-04-30T12:48:36.299Z,22.10
2024-04-30T12:51:04.137Z,22.40
2024-04-30T12:53:31.717Z,22.20
2024-04-30T12:55:59.266Z,21.90
2024-04-30T12:58:26.842Z,20.70
2024-04-30T13:00:55.101Z,20.30
2024-04-30T13:03:22.906Z,20.80
2024-04-30T13:05:51.515Z,21.40
2024-04-30T13:08:22.548Z,20.90
2024-04-30T13:10:50.354Z,21.00
2024-04-30T13:13:19.389Z,20.70
2024-04-30T13:15:46.843Z,21.00
2024-04-30T13:18:14.119Z,20.60
2024-04-30T13:20:42.192Z,20.70
2024-04-30T13:23:09.698Z,21.00
2024-04-30T13:25:38.539Z,21.20
2024-04-30T13:28:06.910Z,20.90
2024-04-30T13:30:35.663Z,20.90
2024-04-30T13:33:07.012Z,21.70
2024-04-30T13:35:34.572Z,21.70
2024-04-30T13:38:02.052Z,21.20
2024-04-30T13:40:30.223Z,21.10
2024-04-30T13:42:57.798Z,20.70
2024-04-30T13:45:27.554Z,20.30
2024-04-30T13:47:56.038Z,20.70
2024-04-30T13:50:23.619Z,20.40
2024-04-30T13:52:51.322Z,20.50
2024-04-30T13:55:19.993Z,20.20
2024-04-30T13:57:47.682Z,20.20
2024-04-30T14:00:15.483Z,20.00
2024-04-30T14:02:46.010Z,19.70
2024-04-30T14:07:54.575Z,19.70
2024-04-30T14:10:22.192Z,20.00
2024-04-30T14:12:49.678Z,19.70
2024-04-30T14:15:17.405Z,19.60
2024-04-30T14:17:45.571Z,20.00
2024-04-30T14:20:13.274Z,19.80
2024-04-30T14:22:43.009Z,19.90
2024-04-30T14:25:10.668Z,20.10
2024-04-30T14:27:38.421Z,19.80
2024-04-30T14:30:06.146Z,19.60
2024-04-30T14:32:33.683Z,19.30
2024-04-30T14:35:01.305Z,19.70
2024-04-30T14:37:29.111Z,19.70
2024-04-30T14:39:56.421Z,19.90
2024-04-30T14:42:23.987Z,19.70
2024-04-30T14:44:54.278Z,19.30
2024-04-30T14:47:27.214Z,18.80
2024-04-30T14:49:55.097Z,19.10
2024-04-30T14:52:22.786Z,19.50
2024-04-30T14:54:50.325Z,19.40
2024-04-30T14:57:17.840Z,18.80
2024-04-30T14:59:45.181Z,18.90
2024-04-30T15:02:13.303Z,19.30
2024-04-30T15:04:40.718Z,19.40
2024-04-30T15:07:08.042Z,18.60
2024-04-30T15:09:35.909Z,18.90
2024-04-30T15:12:04.471Z,19.20
2024-04-30T15:14:31.854Z,19.10
2024-04-30T15:16:59.161Z,19.20
2024-04-30T15:19:26.743Z,19.20
2024-04-30T15:21:54.111Z,18.90
2024-04-30T15:24:21.497Z,18.50
2024-04-30T15:26:48.830Z,18.70
2024-04-30T15:29:16.346Z,18.40
2024-04-30T15:31:43.864Z,18.40
2024-04-30T15:34:11.516Z,18.40
2024-04-30T15:36:43.220Z,18.50
2024-04-30T15:39:10.838Z,18.60
2024-04-30T15:41:40.843Z,18.60
2024-04-30T15:44:08.083Z,18.30
2024-04-30T15:46:39.186Z,18.30
2024-04-30T15:49:06.509Z,18.10
2024-04-30T15:51:38.250Z,18.40
2024-04-30T15:54:05.661Z,18.30
2024-04-30T15:56:36.325Z,18.00
2024-04-30T15:59:03.986Z,17.80
2024-04-30T16:01:32.215Z,17.70
2024-04-30T16:03:59.593Z,17.60
2024-04-30T16:06:26.851Z,17.30
2024-04-30T16:08:54.171Z,17.20
2024-04-30T16:11:21.882Z,16.80
2024-04-30T16:13:50.286Z,16.70
2024-04-30T16:16:18.939Z,16.90
2024-04-30T16:18:47.783Z,16.80
2024-04-30T16:21:15.766Z,16.90
2024-04-30T16:23:43.721Z,17.10
2024-04-30T16:26:11.031Z,17.10
2024-04-30T16:28:42.170Z,17.00
2024-04-30T16:31:11.410Z,16.90
2024-04-30T16:33:38.908Z,16.80
2024-04-30T16:36:06.968Z,16.70
2024-04-30T16:38:34.296Z,16.80
2024-04-30T16:41:03.378Z,16.60
2024-04-30T16:43:30.615Z,16.40
2024-04-30T16:45:57.902Z,16.30
2024-04-30T16:48:26.440Z,16.30
2024-04-30T16:50:54.015Z,16.40
2024-04-30T16:53:21.391Z,16.10
2024-04-30T16:55:48.683Z,16.00
2024-04-30T16:58:15.984Z,16.10
2024-04-30T17:00:43.402Z,16.10
2024-04-30T17:03:11.761Z,15.90
2024-04-30T17:05:39.245Z,15.90
2024-04-30T17:08:06.719Z,15.90
2024-04-30T17:10:34.127Z,15.90
2024-04-30T17:13:01.459Z,15.80
2024-04-30T17:15:28.939Z,15.70
2024-04-30T17:17:56.360Z,15.80
2024-04-30T17:20:24.065Z,15.80
2024-04-30T17:22:51.260Z,15.60
2024-04-30T17:25:18.569Z,15.40
2024-04-30T17:27:45.874Z,15.50
2024-04-30T17:30:14.165Z,15.40
2024-04-30T17:32:41.670Z,15.30
2024-04-30T17:35:09.056Z,15.20
2024-04-30T17:37:36.335Z,15.10
2024-04-30T17:40:04.112Z,15.00
2024-04-30T17:42:31.922Z,14.90
2024-04-30T17:44:59.248Z,14.70
2024-04-30T17:47:26.582Z,14.70
2024-04-30T17:49:54.838Z,14.60
2024-04-30T17:52:22.042Z,14.70
2024-04-30T17:54:49.381Z,14.60
2024-04-30T17:57:16.781Z,14.70
2024-04-30T17:59:46.551Z,14.60
2024-04-30T18:02:13.808Z,14.60
2024-04-30T18:04:42.108Z,14.50
2024-04-30T18:07:09.486Z,14.40
2024-04-30T18:09:38.816Z,14.20
2024-04-30T18:12:06.503Z,14.20
2024-04-30T18:14:33.933Z,14.10
2024-04-30T18:17:03.842Z,14.10
2024-04-30T18:19:31.744Z,14.10
2024-04-30T18:21:59.080Z,14.10
2024-04-30T18:24:26.683Z,14.00
2024-04-30T18:26:56.571Z,14.00
2024-04-30T18:29:23.988Z,13.90
2024-04-30T18:31:52.653Z,13.90
2024-04-30T18:34:20.354Z,13.90
2024-04-30T18:36:47.980Z,13.70
2024-04-30T18:39:16.398Z,13.70
2024-04-30T18:41:45.378Z,13.70
2024-04-30T18:44:13.094Z,13.60
2024-04-30T18:46:40.744Z,13.60
2024-04-30T18:49:10.358Z,13.50
2024-04-30T18:51:41.882Z,13.40
2024-04-30T18:54:09.858Z,13.40
2024-04-30T18:56:44.028Z,13.40
2024-04-30T18:59:11.472Z,13.30
2024-04-30T19:01:39.086Z,13.30
2024-04-30T19:04:07.056Z,13.30
2024-04-30T19:06:34.592Z,13.30
2024-04-30T19:09:02.822Z,13.30
2024-04-30T19:11:30.323Z,13.30
2024-04-30T19:13:57.772Z,13.20
2024-04-30T19:16:25.175Z,13.10
2024-04-30T19:18:52.683Z,13.20
2024-04-30T19:21:20.657Z,13.30
2024-04-30T19:23:48.038Z,13.30
2024-04-30T19:26:17.516Z,13.20
2024-04-30T19:28:45.049Z,13.10
2024-04-30T19:31:16.921Z,13.10
2024-04-30T19:33:44.422Z,13.20
2024-04-30T19:36:24.918Z,13.10
2024-04-30T19:38:52.360Z,13.00
2024-04-30T19:41:19.991Z,13.00
2024-04-30T19:43:48.547Z,13.00
2024-04-30T19:46:21.108Z,13.00
2024-04-30T19:48:51.824Z,12.90
2024-04-30T19:51:23.405Z,12.90
2024-04-30T19:53:53.277Z,12.80
2024-04-30T19:56:21.086Z,12.80
2024-04-30T19:58:56.951Z,12.80
2024-04-30T20:01:29.321Z,12.80
2024-04-30T20:03:58.705Z,12.70
2024-04-30T20:06:26.824Z,12.70
2024-04-30T20:08:54.315Z,12.50
2024-04-30T20:11:25.555Z,12.50
2024-04-30T20:13:54.278Z,12.60
2024-04-30T20:16:24.461Z,12.60
2024-04-30T20:18:52.403Z,12.50
2024-04-30T20:21:20.040Z,12.40
2024-04-30T20:23:47.401Z,12.40
2024-04-30T20:26:15.144Z,12.40
2024-04-30T20:28:42.701Z,12.40
2024-04-30T20:31:10.166Z,12.30
2024-04-30T20:33:40.409Z,12.30
2024-04-30T20:36:15.502Z,12.30
2024-04-30T20:38:42.882Z,12.20
2024-04-30T20:41:11.484Z,12.10
2024-04-30T20:43:38.909Z,12.10
2024-04-30T20:46:06.586Z,12.20
2024-04-30T20:48:34.137Z,12.20
2024-04-30T20:51:04.243Z,12.20
2024-04-30T20:53:31.728Z,12.10
2024-04-30T20:55:59.194Z,12.10
2024-04-30T20:58:26.613Z,11.90
2024-04-30T21:00:54.014Z,12.00
2024-04-30T21:03:21.614Z,11.90
2024-04-30T21:05:49.023Z,11.70
2024-04-30T21:08:23.973Z,11.70
2024-04-30T21:10:54.438Z,11.80
2024-04-30T21:13:21.804Z,11.80
2024-04-30T21:15:49.377Z,11.70
2024-04-30T21:18:16.938Z,11.50
2024-04-30T21:20:44.543Z,11.50
2024-04-30T21:23:12.133Z,11.50
2024-04-30T21:25:39.562Z,11.40
2024-04-30T21:28:06.954Z,11.30
2024-04-30T21:30:34.480Z,11.40
2024-04-30T21:33:04.435Z,11.60
2024-04-30T21:35:32.316Z,11.70
2024-04-30T21:37:59.898Z,11.60
2024-04-30T21:40:27.361Z,11.70
2024-04-30T21:42:54.917Z,11.60
2024-04-30T21:45:22.475Z,11.60
2024-04-30T21:47:49.944Z,11.60
2024-04-30T21:50:19.565Z,11.50
2024-04-30T21:52:47.204Z,11.50
2024-04-30T21:55:14.688Z,11.40
2024-04-30T21:57:42.244Z,11.40
2024-04-30T22:00:14.955Z,11.40
2024-04-30T22:02:42.487Z,11.40
2024-04-30T22:05:10.038Z,11.30
2024-04-30T22:07:37.498Z,11.30
2024-04-30T22:10:05.342Z,11.20
2024-04-30T22:12:33.111Z,11.20
2024-04-30T22:15:00.622Z,11.20
2024-04-30T22:17:28.106Z,11.20
2024-04-30T22:19:58.225Z,11.20
2024-04-30T22:22:25.551Z,11.20
2024-04-30T22:24:52.949Z,11.20
2024-04-30T22:27:21.508Z,11.10
2024-04-30T22:29:52.585Z,11.10
2024-04-30T22:32:22.367Z,11.00
2024-04-30T22:34:49.760Z,11.00
2024-04-30T22:37:17.430Z,11.00
2024-04-30T22:39:44.769Z,10.90
2024-04-30T22:42:12.225Z,10.90
2024-04-30T22:44:39.641Z,10.80
2024-04-30T22:47:07.271Z,10.80
2024-04-30T22:49:34.612Z,10.70
2024-04-30T22:52:02.817Z,10.80
2024-04-30T22:54:30.159Z,10.70
2024-04-30T22:56:57.623Z,10.70
2024-04-30T22:59:25.189Z,10.60
2024-04-30T23:01:52.799Z,10.50
2024-04-30T23:04:20.414Z,10.40
2024-04-30T23:06:47.893Z,10.40
2024-04-30T23:09:15.190Z,10.30
2024-04-30T23:11:42.646Z,10.30
2024-04-30T23:14:10.017Z,10.30
2024-04-30T23:16:37.503Z,10.30
2024-04-30T23:19:05.036Z,10.30
2024-04-30T23:21:34.211Z,10.30
2024-04-30T23:24:01.514Z,10.20
2024-04-30T23:26:29.023Z,10.10
2024-04-30T23:28:56.815Z,10.00
2024-04-30T23:31:24.298Z,10.00
2024-04-30T23:33:51.881Z,9.90
2024-04-30T23:36:19.489Z,9.80
2024-04-30T23:38:46.803Z,9.70
2024-04-30T23:41:14.186Z,9.70
2024-04-30T23:43:41.573Z,9.70
2024-04-30T23:46:09.053Z,9.70
2024-04-30T23:48:36.445Z,9.60
2024-04-30T23:51:03.941Z,9.50
2024-04-30T23:53:31.350Z,9.40
2024-04-30T23:55:58.746Z,9.40
2024-04-30T23:58:26.062Z,9.40
